Cancún International Airport (CUN/MMUN)



No chart available
Flight Aircraft Arriving
CPX3129
MMMD - Licenciado Manuel Crescencio Rejon Int Airport
Mexico Merida, Mexico
Flight Aircraft Departing
CPX3128
MMMX - Benito Juárez International Airport
Mexico Mexico City, Mexico
CPX3167
TBPB - Grantley Adams International Airport
Barbados Bridgetown, Barbados


Airport Information
Location: Cancun,
Coordinates: 21.0365 / -86.8771
Field Elevation: 21ft
Longest Runway: 11,500ft
ILS Approaches: YES
Landing Fees: $1,359 per flight
Jet A Price: $0.90/lbs

Current Weather
METAR:
Not available
TAF: TAF MMUN 271621Z 2718/2824 09008KT 6SM HZ BKN015 BKN250 TX31/2721Z TN26/2812Z BECMG 2720/2721 12015KT FM280200 09008KT P6SM SCT015 BKN250 FM281000 12006KT P6SM BKN015 BKN080 TEMPO 2812/2816 5SM RA FM281700 12010KT 6SM HZ BKN015CB BKN080 TEMPO 2817/2821 5SM TSRA

Recent Arrivals
Date Flight Type Depart
03/12/2022 CPX3128 B738 Benito Juárez Intl (MMMX)
Recent Departures
Date Flight Type Arrive
05/24/2022 CPX3129 B738 Licenciado Manuel Crescencio Rejon Int Airport (MMMD)